sensor_id;sensor_type;location;lat;lon;timestamp;pressure;altitude;pressure_sealevel;temperature;humidity
72336;BME280;65062;48.446;8.834;2023-05-19T00:00:13;97955.06;;;10.29;85.10
72336;BME280;65062;48.446;8.834;2023-05-19T00:03:14;97953.34;;;10.22;84.46
72336;BME280;65062;48.446;8.834;2023-05-19T00:06:18;97942.72;;;10.23;83.56
72336;BME280;65062;48.446;8.834;2023-05-19T00:09:20;97953.16;;;10.23;84.11
72336;BME280;65062;48.446;8.834;2023-05-19T00:12:22;97949.38;;;10.26;84.98
72336;BME280;65062;48.446;8.834;2023-05-19T00:15:22;97945.75;;;10.35;83.95
72336;BME280;65062;48.446;8.834;2023-05-19T00:18:23;97947.19;;;10.37;84.37
72336;BME280;65062;48.446;8.834;2023-05-19T00:21:23;97952.28;;;10.31;84.82
72336;BME280;65062;48.446;8.834;2023-05-19T00:24:23;97944.66;;;10.21;85.60
72336;BME280;65062;48.446;8.834;2023-05-19T00:27:24;97950.13;;;10.04;86.02
72336;BME280;65062;48.446;8.834;2023-05-19T00:30:24;97946.25;;;9.92;85.77
72336;BME280;65062;48.446;8.834;2023-05-19T00:33:25;97943.63;;;9.92;85.45
72336;BME280;65062;48.446;8.834;2023-05-19T00:36:25;97941.34;;;9.97;85.62
72336;BME280;65062;48.446;8.834;2023-05-19T00:39:25;97932.34;;;9.91;86.45
72336;BME280;65062;48.446;8.834;2023-05-19T00:42:26;97940.03;;;9.93;85.94
72336;BME280;65062;48.446;8.834;2023-05-19T00:45:26;97940.47;;;10.12;86.06
72336;BME280;65062;48.446;8.834;2023-05-19T00:48:27;97940.66;;;10.03;87.06
72336;BME280;65062;48.446;8.834;2023-05-19T00:51:27;97937.25;;;9.94;86.20
72336;BME280;65062;48.446;8.834;2023-05-19T00:54:28;97930.06;;;9.88;86.86
72336;BME280;65062;48.446;8.834;2023-05-19T00:57:29;97931.66;;;10.05;86.00
72336;BME280;65062;48.446;8.834;2023-05-19T01:00:30;97929.56;;;9.93;85.89
72336;BME280;65062;48.446;8.834;2023-05-19T01:03:32;97926.59;;;10.04;86.09
72336;BME280;65062;48.446;8.834;2023-05-19T01:06:35;97918.25;;;10.08;87.35
72336;BME280;65062;48.446;8.834;2023-05-19T01:09:38;97916.63;;;9.99;86.40
72336;BME280;65062;48.446;8.834;2023-05-19T01:12:39;97915.06;;;9.82;86.40
72336;BME280;65062;48.446;8.834;2023-05-19T01:16:06;97913.16;;;9.76;87.10
72336;BME280;65062;48.446;8.834;2023-05-19T01:23:12;97919.00;;;9.86;86.16
72336;BME280;65062;48.446;8.834;2023-05-19T01:30:22;97932.06;;;9.86;85.45
72336;BME280;65062;48.446;8.834;2023-05-19T01:33:15;97936.53;;;9.78;85.96
72336;BME280;65062;48.446;8.834;2023-05-19T01:36:18;97932.25;;;9.77;86.10
72336;BME280;65062;48.446;8.834;2023-05-19T01:39:19;97931.63;;;9.75;86.90
72336;BME280;65062;48.446;8.834;2023-05-19T01:42:22;97932.75;;;9.72;86.74
72336;BME280;65062;48.446;8.834;2023-05-19T01:45:23;97921.34;;;9.73;87.78
72336;BME280;65062;48.446;8.834;2023-05-19T01:48:25;97925.25;;;9.77;87.39
72336;BME280;65062;48.446;8.834;2023-05-19T01:51:26;97921.94;;;9.83;87.04
72336;BME280;65062;48.446;8.834;2023-05-19T01:54:26;97920.94;;;9.84;86.52
72336;BME280;65062;48.446;8.834;2023-05-19T02:01:05;97917.00;;;9.88;87.36
72336;BME280;65062;48.446;8.834;2023-05-19T02:04:44;97931.81;;;9.73;87.37
72336;BME280;65062;48.446;8.834;2023-05-19T02:08:40;97920.53;;;9.73;87.09
72336;BME280;65062;48.446;8.834;2023-05-19T02:11:28;97924.91;;;9.72;87.49
72336;BME280;65062;48.446;8.834;2023-05-19T02:14:46;97918.69;;;9.81;86.73
72336;BME280;65062;48.446;8.834;2023-05-19T02:17:49;97918.00;;;9.87;86.66
72336;BME280;65062;48.446;8.834;2023-05-19T02:20:53;97912.28;;;9.84;87.92
72336;BME280;65062;48.446;8.834;2023-05-19T02:23:53;97912.34;;;9.76;86.42
72336;BME280;65062;48.446;8.834;2023-05-19T02:26:54;97915.28;;;9.73;86.11
72336;BME280;65062;48.446;8.834;2023-05-19T02:29:54;97907.06;;;9.84;87.02
72336;BME280;65062;48.446;8.834;2023-05-19T02:32:55;97913.78;;;9.78;87.22
72336;BME280;65062;48.446;8.834;2023-05-19T02:35:56;97906.34;;;9.67;87.08
72336;BME280;65062;48.446;8.834;2023-05-19T02:38:56;97915.78;;;9.68;86.06
72336;BME280;65062;48.446;8.834;2023-05-19T02:41:57;97914.03;;;9.61;87.27
72336;BME280;65062;48.446;8.834;2023-05-19T02:44:59;97921.50;;;9.72;87.13
72336;BME280;65062;48.446;8.834;2023-05-19T02:47:59;97905.84;;;9.64;87.69
72336;BME280;65062;48.446;8.834;2023-05-19T02:50:59;97916.13;;;9.65;87.81
72336;BME280;65062;48.446;8.834;2023-05-19T02:54:00;97915.69;;;9.54;87.98
72336;BME280;65062;48.446;8.834;2023-05-19T02:57:00;97911.28;;;9.54;88.26
72336;BME280;65062;48.446;8.834;2023-05-19T03:00:01;97901.44;;;9.64;87.04
72336;BME280;65062;48.446;8.834;2023-05-19T03:03:01;97914.97;;;9.68;85.87
72336;BME280;65062;48.446;8.834;2023-05-19T03:06:03;97910.56;;;9.76;85.63
72336;BME280;65062;48.446;8.834;2023-05-19T03:09:07;97906.19;;;9.61;85.66
72336;BME280;65062;48.446;8.834;2023-05-19T03:12:08;97915.53;;;9.55;83.71
72336;BME280;65062;48.446;8.834;2023-05-19T03:15:08;97914.09;;;9.45;84.81
72336;BME280;65062;48.446;8.834;2023-05-19T03:18:09;97916.88;;;9.43;85.22
72336;BME280;65062;48.446;8.834;2023-05-19T03:21:11;97908.69;;;9.38;85.66
72336;BME280;65062;48.446;8.834;2023-05-19T03:24:11;97920.59;;;9.49;86.19
72336;BME280;65062;48.446;8.834;2023-05-19T03:27:11;97921.59;;;9.48;85.92
72336;BME280;65062;48.446;8.834;2023-05-19T03:30:12;97918.03;;;9.41;86.41
72336;BME280;65062;48.446;8.834;2023-05-19T03:33:12;97918.19;;;9.39;85.90
72336;BME280;65062;48.446;8.834;2023-05-19T03:36:13;97929.09;;;9.43;85.91
72336;BME280;65062;48.446;8.834;2023-05-19T03:39:14;97925.53;;;9.44;85.95
72336;BME280;65062;48.446;8.834;2023-05-19T03:42:14;97920.31;;;9.44;86.07
72336;BME280;65062;48.446;8.834;2023-05-19T03:45:15;97918.34;;;9.38;86.23
72336;BME280;65062;48.446;8.834;2023-05-19T03:48:15;97916.56;;;9.30;86.60
72336;BME280;65062;48.446;8.834;2023-05-19T03:51:15;97923.91;;;9.27;85.66
72336;BME280;65062;48.446;8.834;2023-05-19T03:54:16;97914.94;;;9.29;85.41
72336;BME280;65062;48.446;8.834;2023-05-19T03:57:17;97918.53;;;9.36;84.99
72336;BME280;65062;48.446;8.834;2023-05-19T04:00:17;97920.81;;;9.39;84.28
72336;BME280;65062;48.446;8.834;2023-05-19T04:03:18;97917.53;;;9.37;85.07
72336;BME280;65062;48.446;8.834;2023-05-19T04:06:18;97921.09;;;9.44;84.62
72336;BME280;65062;48.446;8.834;2023-05-19T04:09:19;97919.97;;;9.39;84.64
72336;BME280;65062;48.446;8.834;2023-05-19T04:12:19;97927.81;;;9.47;84.42
72336;BME280;65062;48.446;8.834;2023-05-19T04:15:20;97923.38;;;9.47;84.39
72336;BME280;65062;48.446;8.834;2023-05-19T04:18:20;97926.66;;;9.49;84.35
72336;BME280;65062;48.446;8.834;2023-05-19T04:21:20;97922.06;;;9.51;84.24
72336;BME280;65062;48.446;8.834;2023-05-19T04:24:21;97929.19;;;9.65;82.64
72336;BME280;65062;48.446;8.834;2023-05-19T04:27:21;97925.13;;;9.63;83.82
72336;BME280;65062;48.446;8.834;2023-05-19T04:30:25;97928.09;;;9.60;83.44
72336;BME280;65062;48.446;8.834;2023-05-19T04:33:25;97928.03;;;9.68;83.50
72336;BME280;65062;48.446;8.834;2023-05-19T04:36:25;97930.66;;;9.68;82.79
72336;BME280;65062;48.446;8.834;2023-05-19T04:39:26;97921.63;;;9.78;82.79
72336;BME280;65062;48.446;8.834;2023-05-19T04:42:26;97923.22;;;9.87;82.52
72336;BME280;65062;48.446;8.834;2023-05-19T04:45:29;97922.88;;;9.98;83.01
72336;BME280;65062;48.446;8.834;2023-05-19T04:48:32;97922.69;;;10.00;81.96
72336;BME280;65062;48.446;8.834;2023-05-19T04:51:32;97917.09;;;10.11;81.69
72336;BME280;65062;48.446;8.834;2023-05-19T04:54:33;97917.41;;;10.16;81.12
72336;BME280;65062;48.446;8.834;2023-05-19T04:57:34;97923.25;;;10.18;81.28
72336;BME280;65062;48.446;8.834;2023-05-19T05:00:36;97922.53;;;10.32;80.63
72336;BME280;65062;48.446;8.834;2023-05-19T05:03:36;97916.28;;;10.41;79.33
72336;BME280;65062;48.446;8.834;2023-05-19T05:06:37;97914.94;;;10.45;79.25
72336;BME280;65062;48.446;8.834;2023-05-19T05:09:37;97922.31;;;10.64;78.30
72336;BME280;65062;48.446;8.834;2023-05-19T05:12:38;97921.31;;;10.65;78.80
72336;BME280;65062;48.446;8.834;2023-05-19T05:15:38;97923.81;;;10.81;77.72
72336;BME280;65062;48.446;8.834;2023-05-19T05:18:39;97923.75;;;10.89;76.78
72336;BME280;65062;48.446;8.834;2023-05-19T05:21:39;97924.31;;;10.99;75.93
72336;BME280;65062;48.446;8.834;2023-05-19T05:24:41;97915.56;;;11.07;75.24
72336;BME280;65062;48.446;8.834;2023-05-19T05:27:41;97915.13;;;11.18;74.56
72336;BME280;65062;48.446;8.834;2023-05-19T05:30:41;97912.59;;;11.10;76.09
72336;BME280;65062;48.446;8.834;2023-05-19T05:33:44;97908.88;;;11.04;75.28
72336;BME280;65062;48.446;8.834;2023-05-19T05:36:44;97917.19;;;11.08;76.81
72336;BME280;65062;48.446;8.834;2023-05-19T05:39:44;97906.47;;;11.17;75.07
72336;BME280;65062;48.446;8.834;2023-05-19T05:42:45;97906.19;;;11.27;75.85
72336;BME280;65062;48.446;8.834;2023-05-19T05:45:45;97916.06;;;11.39;75.96
72336;BME280;65062;48.446;8.834;2023-05-19T05:48:46;97927.28;;;11.48;76.41
72336;BME280;65062;48.446;8.834;2023-05-19T05:51:46;97925.66;;;11.76;74.53
72336;BME280;65062;48.446;8.834;2023-05-19T05:54:47;97919.16;;;11.86;69.93
72336;BME280;65062;48.446;8.834;2023-05-19T05:57:48;97919.22;;;11.93;70.55
72336;BME280;65062;48.446;8.834;2023-05-19T06:00:49;97913.94;;;12.22;70.39
72336;BME280;65062;48.446;8.834;2023-05-19T06:03:50;97920.38;;;12.40;67.36
72336;BME280;65062;48.446;8.834;2023-05-19T06:06:50;97919.38;;;12.41;69.29
72336;BME280;65062;48.446;8.834;2023-05-19T06:09:51;97920.88;;;12.50;67.57
72336;BME280;65062;48.446;8.834;2023-05-19T06:12:52;97920.69;;;12.52;67.01
72336;BME280;65062;48.446;8.834;2023-05-19T06:15:52;97921.91;;;12.49;65.45
72336;BME280;65062;48.446;8.834;2023-05-19T06:18:52;97911.75;;;12.46;66.09
72336;BME280;65062;48.446;8.834;2023-05-19T06:21:53;97915.31;;;12.39;67.10
72336;BME280;65062;48.446;8.834;2023-05-19T06:24:53;97909.25;;;12.38;64.34
72336;BME280;65062;48.446;8.834;2023-05-19T06:27:53;97917.50;;;12.35;65.70
72336;BME280;65062;48.446;8.834;2023-05-19T06:30:54;97908.44;;;12.38;64.15
72336;BME280;65062;48.446;8.834;2023-05-19T06:33:54;97907.44;;;12.39;64.65
72336;BME280;65062;48.446;8.834;2023-05-19T06:36:55;97911.50;;;12.41;66.10
72336;BME280;65062;48.446;8.834;2023-05-19T06:39:55;97911.03;;;12.52;65.11
72336;BME280;65062;48.446;8.834;2023-05-19T06:42:55;97903.81;;;12.61;63.95
72336;BME280;65062;48.446;8.834;2023-05-19T06:45:56;97915.28;;;12.75;63.26
72336;BME280;65062;48.446;8.834;2023-05-19T06:48:56;97909.38;;;12.94;61.68
72336;BME280;65062;48.446;8.834;2023-05-19T06:51:56;97914.00;;;13.13;61.84
72336;BME280;65062;48.446;8.834;2023-05-19T06:54:57;97915.81;;;13.12;61.98
72336;BME280;65062;48.446;8.834;2023-05-19T06:57:57;97913.19;;;13.12;62.84
72336;BME280;65062;48.446;8.834;2023-05-19T07:00:57;97916.56;;;13.06;62.05
72336;BME280;65062;48.446;8.834;2023-05-19T07:03:58;97916.94;;;13.03;63.02
72336;BME280;65062;48.446;8.834;2023-05-19T07:06:58;97911.44;;;12.98;63.44
72336;BME280;65062;48.446;8.834;2023-05-19T07:09:59;97912.31;;;13.05;61.54
72336;BME280;65062;48.446;8.834;2023-05-19T07:12:59;97910.41;;;13.20;63.81
72336;BME280;65062;48.446;8.834;2023-05-19T07:15:59;97909.66;;;13.26;62.64
72336;BME280;65062;48.446;8.834;2023-05-19T07:19:00;97907.53;;;13.15;63.48
72336;BME280;65062;48.446;8.834;2023-05-19T07:22:00;97912.78;;;13.15;60.49
72336;BME280;65062;48.446;8.834;2023-05-19T07:25:01;97909.03;;;13.24;59.84
72336;BME280;65062;48.446;8.834;2023-05-19T07:28:01;97914.81;;;13.41;60.47
72336;BME280;65062;48.446;8.834;2023-05-19T07:31:02;97912.75;;;13.36;60.35
72336;BME280;65062;48.446;8.834;2023-05-19T07:34:02;97918.13;;;13.22;61.24
72336;BME280;65062;48.446;8.834;2023-05-19T07:37:03;97911.19;;;13.14;63.63
72336;BME280;65062;48.446;8.834;2023-05-19T07:40:04;97914.91;;;13.26;61.45
72336;BME280;65062;48.446;8.834;2023-05-19T07:43:05;97916.22;;;13.43;59.40
72336;BME280;65062;48.446;8.834;2023-05-19T07:46:06;97918.13;;;13.28;62.52
72336;BME280;65062;48.446;8.834;2023-05-19T07:49:06;97911.09;;;13.29;63.54
72336;BME280;65062;48.446;8.834;2023-05-19T07:52:07;97910.03;;;13.23;60.96
72336;BME280;65062;48.446;8.834;2023-05-19T07:55:07;97917.44;;;13.41;59.93
72336;BME280;65062;48.446;8.834;2023-05-19T07:58:07;97913.03;;;13.48;61.12
72336;BME280;65062;48.446;8.834;2023-05-19T08:01:08;97916.53;;;13.61;61.10
72336;BME280;65062;48.446;8.834;2023-05-19T08:04:09;97904.50;;;13.80;58.82
72336;BME280;65062;48.446;8.834;2023-05-19T08:07:10;97898.25;;;13.87;58.35
72336;BME280;65062;48.446;8.834;2023-05-19T08:10:10;97891.25;;;14.07;58.47
72336;BME280;65062;48.446;8.834;2023-05-19T08:13:11;97889.06;;;14.17;59.26
72336;BME280;65062;48.446;8.834;2023-05-19T08:16:11;97895.94;;;14.18;58.51
72336;BME280;65062;48.446;8.834;2023-05-19T08:19:12;97881.06;;;14.51;57.69
72336;BME280;65062;48.446;8.834;2023-05-19T08:22:12;97886.75;;;14.48;57.37
72336;BME280;65062;48.446;8.834;2023-05-19T08:25:12;97885.47;;;14.31;59.33
72336;BME280;65062;48.446;8.834;2023-05-19T08:28:13;97890.97;;;14.36;57.04
72336;BME280;65062;48.446;8.834;2023-05-19T08:31:13;97883.09;;;14.56;59.75
72336;BME280;65062;48.446;8.834;2023-05-19T08:34:13;97877.81;;;14.49;57.70
72336;BME280;65062;48.446;8.834;2023-05-19T08:37:14;97886.75;;;14.61;57.71
72336;BME280;65062;48.446;8.834;2023-05-19T08:40:16;97884.53;;;14.78;55.24
72336;BME280;65062;48.446;8.834;2023-05-19T08:43:17;97883.50;;;14.99;55.34
72336;BME280;65062;48.446;8.834;2023-05-19T08:46:18;97880.28;;;14.84;54.82
72336;BME280;65062;48.446;8.834;2023-05-19T08:49:26;97889.00;;;14.71;58.13
72336;BME280;65062;48.446;8.834;2023-05-19T08:56:10;97868.88;;;14.37;57.32
72336;BME280;65062;48.446;8.834;2023-05-19T08:59:12;97871.13;;;14.53;57.23
72336;BME280;65062;48.446;8.834;2023-05-19T09:02:13;97876.00;;;14.56;55.88
72336;BME280;65062;48.446;8.834;2023-05-19T09:05:15;97869.53;;;14.79;56.64
72336;BME280;65062;48.446;8.834;2023-05-19T09:08:16;97868.72;;;14.72;57.09
72336;BME280;65062;48.446;8.834;2023-05-19T09:11:17;97872.97;;;14.59;57.72
72336;BME280;65062;48.446;8.834;2023-05-19T09:14:18;97879.41;;;14.37;55.60
72336;BME280;65062;48.446;8.834;2023-05-19T09:17:18;97875.22;;;14.69;57.27
72336;BME280;65062;48.446;8.834;2023-05-19T09:20:18;97872.16;;;14.65;57.16
72336;BME280;65062;48.446;8.834;2023-05-19T09:23:19;97869.13;;;14.68;56.41
72336;BME280;65062;48.446;8.834;2023-05-19T09:26:20;97871.53;;;14.63;56.46
72336;BME280;65062;48.446;8.834;2023-05-19T09:29:22;97874.78;;;14.59;57.76
72336;BME280;65062;48.446;8.834;2023-05-19T09:32:24;97871.94;;;14.47;55.79
72336;BME280;65062;48.446;8.834;2023-05-19T09:35:25;97871.94;;;14.47;57.27
72336;BME280;65062;48.446;8.834;2023-05-19T09:38:26;97862.44;;;14.59;56.42
72336;BME280;65062;48.446;8.834;2023-05-19T09:41:26;97865.06;;;14.59;55.60
72336;BME280;65062;48.446;8.834;2023-05-19T09:44:27;97859.41;;;14.62;57.46
72336;BME280;65062;48.446;8.834;2023-05-19T09:47:40;97859.97;;;14.38;58.55
72336;BME280;65062;48.446;8.834;2023-05-19T09:50:42;97856.94;;;14.41;59.13
72336;BME280;65062;48.446;8.834;2023-05-19T09:53:45;97879.47;;;14.77;56.04
72336;BME280;65062;48.446;8.834;2023-05-19T09:56:51;97870.75;;;14.76;55.01
72336;BME280;65062;48.446;8.834;2023-05-19T09:59:57;97859.41;;;14.69;58.10
72336;BME280;65062;48.446;8.834;2023-05-19T10:02:58;97861.25;;;14.88;57.51
72336;BME280;65062;48.446;8.834;2023-05-19T10:06:00;97865.09;;;14.79;54.67
72336;BME280;65062;48.446;8.834;2023-05-19T10:09:01;97862.47;;;14.66;57.57
72336;BME280;65062;48.446;8.834;2023-05-19T10:12:02;97873.19;;;14.78;57.71
72336;BME280;65062;48.446;8.834;2023-05-19T10:15:04;97862.84;;;14.83;56.04
72336;BME280;65062;48.446;8.834;2023-05-19T10:18:05;97872.78;;;15.13;55.99
72336;BME280;65062;48.446;8.834;2023-05-19T10:21:08;97869.13;;;15.08;56.75
72336;BME280;65062;48.446;8.834;2023-05-19T10:24:08;97866.88;;;15.18;56.85
72336;BME280;65062;48.446;8.834;2023-05-19T10:27:11;97860.00;;;15.10;56.49
72336;BME280;65062;48.446;8.834;2023-05-19T10:30:16;97860.19;;;15.22;56.54
72336;BME280;65062;48.446;8.834;2023-05-19T10:33:18;97852.66;;;15.45;54.92
72336;BME280;65062;48.446;8.834;2023-05-19T10:39:34;97859.81;;;14.86;54.59
72336;BME280;65062;48.446;8.834;2023-05-19T10:42:56;97868.94;;;14.70;57.75
72336;BME280;65062;48.446;8.834;2023-05-19T10:45:59;97855.75;;;14.44;57.36
72336;BME280;65062;48.446;8.834;2023-05-19T10:49:00;97856.53;;;14.38;56.74
72336;BME280;65062;48.446;8.834;2023-05-19T10:52:01;97857.13;;;14.40;58.39
72336;BME280;65062;48.446;8.834;2023-05-19T10:55:01;97859.00;;;14.52;56.56
72336;BME280;65062;48.446;8.834;2023-05-19T10:58:02;97854.34;;;14.74;55.60
72336;BME280;65062;48.446;8.834;2023-05-19T11:01:06;97861.81;;;15.03;56.36
72336;BME280;65062;48.446;8.834;2023-05-19T11:04:08;97858.00;;;14.93;56.31
72336;BME280;65062;48.446;8.834;2023-05-19T11:07:17;97854.88;;;15.35;53.97
72336;BME280;65062;48.446;8.834;2023-05-19T11:10:22;97860.38;;;15.53;52.17
72336;BME280;65062;48.446;8.834;2023-05-19T11:13:26;97863.38;;;15.56;53.29
72336;BME280;65062;48.446;8.834;2023-05-19T11:16:27;97863.94;;;15.78;52.86
72336;BME280;65062;48.446;8.834;2023-05-19T11:19:29;97858.88;;;16.20;52.32
72336;BME280;65062;48.446;8.834;2023-05-19T11:22:32;97854.13;;;16.29;52.20
72336;BME280;65062;48.446;8.834;2023-05-19T11:25:44;97852.56;;;15.77;54.30
72336;BME280;65062;48.446;8.834;2023-05-19T11:28:46;97860.78;;;15.43;53.96
72336;BME280;65062;48.446;8.834;2023-05-19T11:31:47;97855.09;;;15.27;57.58
72336;BME280;65062;48.446;8.834;2023-05-19T11:34:48;97861.59;;;15.24;55.70
72336;BME280;65062;48.446;8.834;2023-05-19T11:37:49;97862.22;;;15.07;56.44
72336;BME280;65062;48.446;8.834;2023-05-19T11:40:53;97869.50;;;15.18;53.86
72336;BME280;65062;48.446;8.834;2023-05-19T11:43:54;97860.59;;;15.12;55.61
72336;BME280;65062;48.446;8.834;2023-05-19T11:46:54;97866.50;;;14.88;57.38
72336;BME280;65062;48.446;8.834;2023-05-19T11:49:55;97862.22;;;15.00;55.48
72336;BME280;65062;48.446;8.834;2023-05-19T11:52:59;97861.41;;;15.39;54.28
72336;BME280;65062;48.446;8.834;2023-05-19T11:56:02;97859.38;;;15.41;55.32
72336;BME280;65062;48.446;8.834;2023-05-19T11:59:02;97850.66;;;15.27;53.74
72336;BME280;65062;48.446;8.834;2023-05-19T12:02:16;97855.09;;;15.27;56.58
72336;BME280;65062;48.446;8.834;2023-05-19T12:05:20;97851.66;;;15.26;54.66
72336;BME280;65062;48.446;8.834;2023-05-19T12:08:21;97849.56;;;15.61;54.11
72336;BME280;65062;48.446;8.834;2023-05-19T12:11:22;97850.81;;;15.52;53.22
72336;BME280;65062;48.446;8.834;2023-05-19T12:14:25;97854.06;;;15.47;53.46
72336;BME280;65062;48.446;8.834;2023-05-19T12:17:25;97849.63;;;15.35;51.95
72336;BME280;65062;48.446;8.834;2023-05-19T12:20:27;97847.97;;;15.53;53.30
72336;BME280;65062;48.446;8.834;2023-05-19T12:23:28;97858.66;;;15.71;54.19
72336;BME280;65062;48.446;8.834;2023-05-19T12:26:31;97857.41;;;15.80;53.61
72336;BME280;65062;48.446;8.834;2023-05-19T12:29:32;97855.06;;;15.59;52.39
72336;BME280;65062;48.446;8.834;2023-05-19T12:32:33;97859.53;;;15.59;53.71
72336;BME280;65062;48.446;8.834;2023-05-19T12:35:36;97863.31;;;15.76;53.00
72336;BME280;65062;48.446;8.834;2023-05-19T12:38:36;97851.63;;;15.59;50.72
72336;BME280;65062;48.446;8.834;2023-05-19T12:41:38;97860.78;;;15.50;53.11
72336;BME280;65062;48.446;8.834;2023-05-19T12:47:47;97872.72;;;15.33;54.00
72336;BME280;65062;48.446;8.834;2023-05-19T12:50:50;97875.56;;;15.44;52.42
72336;BME280;65062;48.446;8.834;2023-05-19T12:53:52;97863.34;;;15.69;52.04
72336;BME280;65062;48.446;8.834;2023-05-19T12:56:52;97859.72;;;15.64;51.60
72336;BME280;65062;48.446;8.834;2023-05-19T13:03:06;97870.53;;;15.04;52.71
72336;BME280;65062;48.446;8.834;2023-05-19T13:06:07;97855.75;;;14.77;54.38
72336;BME280;65062;48.446;8.834;2023-05-19T13:09:09;97865.28;;;14.78;54.38
72336;BME280;65062;48.446;8.834;2023-05-19T13:12:10;97864.09;;;14.87;54.58
72336;BME280;65062;48.446;8.834;2023-05-19T13:15:11;97868.31;;;14.88;58.04
72336;BME280;65062;48.446;8.834;2023-05-19T13:18:12;97862.84;;;15.02;55.12
72336;BME280;65062;48.446;8.834;2023-05-19T13:21:12;97852.91;;;14.98;54.58
72336;BME280;65062;48.446;8.834;2023-05-19T13:24:14;97852.72;;;14.86;57.29
72336;BME280;65062;48.446;8.834;2023-05-19T13:27:14;97841.72;;;15.15;55.41
72336;BME280;65062;48.446;8.834;2023-05-19T13:30:15;97849.00;;;15.33;52.33
72336;BME280;65062;48.446;8.834;2023-05-19T13:33:15;97843.13;;;15.44;55.19
72336;BME280;65062;48.446;8.834;2023-05-19T13:36:15;97845.78;;;15.37;54.84
72336;BME280;65062;48.446;8.834;2023-05-19T13:39:16;97833.31;;;15.64;54.93
72336;BME280;65062;48.446;8.834;2023-05-19T13:42:16;97827.00;;;15.65;53.56
72336;BME280;65062;48.446;8.834;2023-05-19T13:45:17;97826.66;;;15.55;52.94
72336;BME280;65062;48.446;8.834;2023-05-19T13:48:17;97827.56;;;15.86;51.73
72336;BME280;65062;48.446;8.834;2023-05-19T13:51:18;97838.16;;;15.73;53.94
72336;BME280;65062;48.446;8.834;2023-05-19T13:54:18;97828.28;;;15.56;53.52
72336;BME280;65062;48.446;8.834;2023-05-19T13:57:19;97825.25;;;15.59;53.95
72336;BME280;65062;48.446;8.834;2023-05-19T14:00:19;97833.56;;;15.56;54.55
72336;BME280;65062;48.446;8.834;2023-05-19T14:03:20;97824.16;;;15.73;52.50
72336;BME280;65062;48.446;8.834;2023-05-19T14:06:20;97821.16;;;15.63;53.52
72336;BME280;65062;48.446;8.834;2023-05-19T14:09:21;97816.03;;;15.74;51.44
72336;BME280;65062;48.446;8.834;2023-05-19T14:12:24;97817.16;;;15.91;54.87
72336;BME280;65062;48.446;8.834;2023-05-19T14:15:25;97813.50;;;15.92;52.35
72336;BME280;65062;48.446;8.834;2023-05-19T14:18:26;97820.38;;;16.00;50.92
72336;BME280;65062;48.446;8.834;2023-05-19T14:21:26;97812.34;;;15.82;52.60
72336;BME280;65062;48.446;8.834;2023-05-19T14:24:26;97812.34;;;15.75;52.14
72336;BME280;65062;48.446;8.834;2023-05-19T14:27:27;97813.28;;;15.50;54.67
72336;BME280;65062;48.446;8.834;2023-05-19T14:30:27;97811.69;;;15.29;54.38
72336;BME280;65062;48.446;8.834;2023-05-19T14:33:28;97821.28;;;14.98;56.01
72336;BME280;65062;48.446;8.834;2023-05-19T14:36:28;97821.50;;;14.83;55.16
72336;BME280;65062;48.446;8.834;2023-05-19T14:39:29;97821.91;;;14.67;54.65
72336;BME280;65062;48.446;8.834;2023-05-19T14:42:29;97822.31;;;14.64;54.75
72336;BME280;65062;48.446;8.834;2023-05-19T14:45:30;97828.19;;;14.73;56.92
72336;BME280;65062;48.446;8.834;2023-05-19T14:48:30;97826.75;;;14.63;56.54
72336;BME280;65062;48.446;8.834;2023-05-19T14:51:31;97816.22;;;14.63;57.21
72336;BME280;65062;48.446;8.834;2023-05-19T14:54:31;97826.56;;;14.72;55.09
72336;BME280;65062;48.446;8.834;2023-05-19T14:57:32;97826.56;;;14.85;55.87
72336;BME280;65062;48.446;8.834;2023-05-19T15:00:33;97825.31;;;15.07;54.14
72336;BME280;65062;48.446;8.834;2023-05-19T15:03:33;97818.63;;;15.11;56.31
72336;BME280;65062;48.446;8.834;2023-05-19T15:06:34;97815.41;;;15.09;54.39
72336;BME280;65062;48.446;8.834;2023-05-19T15:09:34;97812.50;;;15.30;54.22
72336;BME280;65062;48.446;8.834;2023-05-19T15:12:34;97816.16;;;15.22;55.48
72336;BME280;65062;48.446;8.834;2023-05-19T15:15:35;97811.31;;;15.13;54.65
72336;BME280;65062;48.446;8.834;2023-05-19T15:18:35;97809.91;;;15.04;56.03
72336;BME280;65062;48.446;8.834;2023-05-19T15:21:36;97819.25;;;15.00;57.23
72336;BME280;65062;48.446;8.834;2023-05-19T15:24:37;97810.94;;;15.03;57.02
72336;BME280;65062;48.446;8.834;2023-05-19T15:27:37;97801.00;;;14.98;56.70
72336;BME280;65062;48.446;8.834;2023-05-19T15:30:37;97802.81;;;15.11;58.98
72336;BME280;65062;48.446;8.834;2023-05-19T15:33:38;97794.31;;;15.02;58.29
72336;BME280;65062;48.446;8.834;2023-05-19T15:36:39;97795.13;;;14.96;57.06
72336;BME280;65062;48.446;8.834;2023-05-19T15:39:39;97786.84;;;14.80;58.52
72336;BME280;65062;48.446;8.834;2023-05-19T15:42:40;97795.38;;;14.68;57.85
72336;BME280;65062;48.446;8.834;2023-05-19T15:45:40;97796.78;;;14.58;58.42
72336;BME280;65062;48.446;8.834;2023-05-19T15:48:40;97796.19;;;14.49;58.09
72336;BME280;65062;48.446;8.834;2023-05-19T15:51:41;97798.63;;;14.51;56.77
72336;BME280;65062;48.446;8.834;2023-05-19T15:54:41;97799.22;;;14.46;59.53
72336;BME280;65062;48.446;8.834;2023-05-19T15:57:41;97792.53;;;14.37;58.75
72336;BME280;65062;48.446;8.834;2023-05-19T16:00:42;97797.59;;;14.39;57.12
72336;BME280;65062;48.446;8.834;2023-05-19T16:03:44;97792.94;;;14.41;57.39
72336;BME280;65062;48.446;8.834;2023-05-19T16:06:44;97788.47;;;14.41;58.83
72336;BME280;65062;48.446;8.834;2023-05-19T16:09:44;97784.84;;;14.42;57.65
72336;BME280;65062;48.446;8.834;2023-05-19T16:12:45;97785.84;;;14.54;59.95
72336;BME280;65062;48.446;8.834;2023-05-19T16:15:45;97778.78;;;14.48;59.67
72336;BME280;65062;48.446;8.834;2023-05-19T16:18:46;97777.53;;;14.51;58.50
72336;BME280;65062;48.446;8.834;2023-05-19T16:21:46;97776.34;;;14.47;56.79
72336;BME280;65062;48.446;8.834;2023-05-19T16:24:46;97773.28;;;14.56;56.79
72336;BME280;65062;48.446;8.834;2023-05-19T16:27:47;97772.28;;;14.64;58.57